Time,TemperatureF,DewpointF,PressureIn,WindDirection,WindDirectionDegrees,WindSpeedMPH,WindSpeedGustMPH,Humidity,HourlyPrecipIn,Conditions,Clouds,dailyrainin,SoftwareType,DateUTC
2013-06-17 04:22:00,73.0,73.0,29.86,SSE,165,1.0,2.0,99,0.00,,,0.02,,2013-06-17 09:22:00,
2013-06-17 04:34:00,73.0,73.0,29.86,SE,145,0.0,2.0,99,0.00,,,0.02,,2013-06-17 09:34:00,
2013-06-17 04:43:00,73.0,73.0,29.86,SE,145,0.0,2.0,99,0.00,,,0.02,,2013-06-17 09:43:00,
2013-06-17 04:53:00,74.0,72.0,29.86,SSW,193,2.0,6.0,95,0.00,,,0.02,,2013-06-17 09:53:00,
2013-06-17 05:02:00,74.0,72.0,29.86,South,184,2.0,8.0,93,0.00,,,0.02,,2013-06-17 10:02:00,
2013-06-17 05:12:00,74.0,72.0,29.86,South,184,2.0,8.0,93,0.00,,,0.02,,2013-06-17 10:12:00,
2013-06-17 05:22:00,75.0,73.0,29.87,SSW,197,0.0,5.0,93,0.00,,,0.02,,2013-06-17 10:22:00,
2013-06-17 05:33:00,74.0,72.0,29.88,SE,130,0.0,2.0,93,0.00,,,0.02,,2013-06-17 10:33:00,
2013-06-17 05:43:00,74.0,72.0,29.88,SE,130,0.0,2.0,93,0.00,,,0.02,,2013-06-17 10:43:00,
2013-06-17 05:53:00,74.0,72.0,29.88,SW,214,0.0,1.0,94,0.00,,,0.02,,2013-06-17 10:53:00,
2013-06-17 06:02:00,74.0,72.0,29.89,NNE,29,0.0,2.0,94,0.00,,,0.02,,2013-06-17 11:02:00,
2013-06-17 06:12:00,74.0,72.0,29.89,NNE,29,0.0,2.0,94,0.00,,,0.02,,2013-06-17 11:12:00,
2013-06-17 06:23:00,74.0,72.0,29.90,ENE,78,0.0,1.0,94,0.00,,,0.02,,2013-06-17 11:23:00,
2013-06-17 06:33:00,73.0,71.0,29.89,ENE,78,0.0,0.0,95,0.00,,,0.02,,2013-06-17 11:33:00,
2013-06-17 06:43:00,73.0,71.0,29.89,ENE,78,0.0,0.0,95,0.00,,,0.02,,2013-06-17 11:43:00,
2013-06-17 06:53:00,73.0,72.0,29.88,SW,216,0.0,2.0,97,0.00,,,0.02,,2013-06-17 11:53:00,
2013-06-17 07:02:00,74.0,73.0,29.88,South,186,0.0,6.0,96,0.00,,,0.02,,2013-06-17 12:02:00,
2013-06-17 07:11:00,74.0,73.0,29.88,South,186,0.0,6.0,96,0.00,,,0.02,,2013-06-17 12:11:00,
2013-06-17 07:22:00,75.0,73.0,29.88,SE,135,0.0,4.0,94,0.00,,,0.02,,2013-06-17 12:22:00,
2013-06-17 07:33:00,76.0,74.0,29.88,SW,214,0.0,2.0,93,0.00,,,0.02,,2013-06-17 12:33:00,
2013-06-17 07:43:00,76.0,74.0,29.88,SW,214,0.0,2.0,93,0.00,,,0.02,,2013-06-17 12:43:00,
2013-06-17 07:53:00,76.0,74.0,29.89,South,191,0.0,4.0,93,0.00,,,0.02,,2013-06-17 12:53:00,
2013-06-17 08:01:00,77.0,74.0,29.90,South,183,1.0,5.0,91,0.00,,,0.02,,2013-06-17 13:01:00,
2013-06-17 08:12:00,77.0,74.0,29.90,South,183,1.0,5.0,91,0.00,,,0.02,,2013-06-17 13:12:00,
2013-06-17 10:22:00,76.0,70.0,29.98,NE,53,5.0,14.0,82,0.01,,,0.03,,2013-06-17 15:22:00,
2013-06-17 10:33:00,71.0,69.0,30.00,NNW,330,5.0,14.0,93,0.24,,,0.26,,2013-06-17 15:33:00,
2013-06-17 10:43:00,71.0,69.0,30.00,NNW,330,5.0,14.0,93,0.24,,,0.26,,2013-06-17 15:43:00,
2013-06-17 11:11:00,69.0,68.0,29.97,NNE,32,1.0,8.0,96,0.41,,,0.43,,2013-06-17 16:11:00,
2013-06-17 11:22:00,69.0,68.0,29.96,North,10,0.0,4.0,96,0.40,,,0.43,,2013-06-17 16:22:00,
2013-06-17 14:33:00,79.0,72.0,29.90,West,264,1.0,4.0,80,0.00,,,0.44,,2013-06-17 19:33:00,
2013-06-17 14:43:00,79.0,72.0,29.90,West,264,1.0,4.0,80,0.00,,,0.44,,2013-06-17 19:43:00,
2013-06-17 14:54:00,81.0,74.0,29.90,SW,216,0.0,2.0,79,0.00,,,0.44,,2013-06-17 19:54:00,
2013-06-17 15:02:00,81.0,71.0,29.90,North,352,1.0,4.0,72,0.00,,,0.44,,2013-06-17 20:02:00,
2013-06-17 15:22:00,81.0,72.0,29.89,WNW,290,1.0,3.0,75,0.00,,,0.44,,2013-06-17 20:22:00,
2013-06-17 15:34:00,83.0,74.0,29.89,NW,304,0.0,4.0,74,0.00,,,0.43,,2013-06-17 20:34:00,
2013-06-17 15:43:00,83.0,74.0,29.89,NW,304,0.0,4.0,74,0.00,,,0.43,,2013-06-17 20:43:00,
2013-06-17 15:52:00,83.0,74.0,29.88,SSW,201,0.0,6.0,74,0.00,,,0.43,,2013-06-17 20:52:00,
2013-06-17 16:01:00,84.0,74.0,29.88,SSW,192,2.0,7.0,72,0.00,,,0.43,,2013-06-17 21:01:00,
2013-06-17 16:12:00,84.0,74.0,29.88,SSW,192,2.0,7.0,72,0.00,,,0.43,,2013-06-17 21:12:00,
2013-06-17 16:22:00,85.0,72.0,29.88,WSW,240,4.0,9.0,65,0.00,,,0.43,,2013-06-17 21:22:00,
2013-06-17 16:33:00,85.0,73.0,29.88,SSW,197,2.0,6.0,67,0.00,,,0.42,,2013-06-17 21:33:00,
2013-06-17 16:43:00,85.0,73.0,29.88,SSW,197,2.0,6.0,67,0.00,,,0.42,,2013-06-17 21:43:00,
2013-06-17 16:52:00,85.0,72.0,29.87,SSW,205,3.0,8.0,66,0.00,,,0.42,,2013-06-17 21:52:00,
2013-06-17 17:01:00,86.0,74.0,29.87,West,280,2.0,9.0,68,0.00,,,0.42,,2013-06-17 22:01:00,
2013-06-17 17:11:00,86.0,74.0,29.87,West,280,2.0,9.0,68,0.00,,,0.42,,2013-06-17 22:11:00,
2013-06-17 17:22:00,86.0,74.0,29.86,SSW,202,1.0,6.0,68,0.00,,,0.42,,2013-06-17 22:22:00,
2013-06-17 17:33:00,86.0,73.0,29.86,West,275,3.0,6.0,66,0.00,,,0.42,,2013-06-17 22:33:00,
2013-06-17 17:43:00,86.0,73.0,29.86,West,275,3.0,6.0,66,0.00,,,0.42,,2013-06-17 22:43:00,
2013-06-17 17:53:00,86.0,74.0,29.86,WSW,245,2.0,6.0,68,0.00,,,0.42,,2013-06-17 22:53:00,
2013-06-17 18:02:00,87.0,74.0,29.86,WNW,293,2.0,4.0,66,0.00,,,0.42,,2013-06-17 23:02:00,
2013-06-17 18:11:00,87.0,74.0,29.86,WNW,293,2.0,4.0,66,0.00,,,0.42,,2013-06-17 23:11:00,
2013-06-17 18:22:00,86.0,74.0,29.85,West,269,0.0,3.0,68,0.00,,,0.42,,2013-06-17 23:22:00,
2013-06-17 18:32:00,88.0,76.0,29.85,SSW,195,0.0,3.0,67,0.00,,,0.42,,2013-06-17 23:32:00,
2013-06-17 18:42:00,88.0,76.0,29.85,SSW,195,0.0,3.0,67,0.00,,,0.42,,2013-06-17 23:42:00,
2013-06-17 18:53:00,88.0,75.0,29.85,SW,236,0.0,3.0,65,0.00,,,0.42,,2013-06-17 23:53:00,
2013-06-17 19:01:00,88.0,75.0,29.85,WSW,238,0.0,2.0,66,0.00,,,0.42,,2013-06-18 00:01:00,
2013-06-17 19:12:00,88.0,75.0,29.85,WSW,238,0.0,2.0,66,0.00,,,0.42,,2013-06-18 00:12:00,
2013-06-17 19:22:00,88.0,77.0,29.84,NNE,17,0.0,2.0,69,0.00,,,0.42,,2013-06-18 00:22:00,
2013-06-17 19:33:00,86.0,76.0,29.85,North,4,0.0,2.0,72,0.00,,,0.42,,2013-06-18 00:33:00,
2013-06-17 19:43:00,86.0,76.0,29.85,North,4,0.0,2.0,72,0.00,,,0.42,,2013-06-18 00:43:00,
2013-06-17 19:52:00,85.0,78.0,29.84,North,4,0.0,1.0,79,0.00,,,0.42,,2013-06-18 00:52:00,
2013-06-17 20:01:00,83.0,77.0,29.85,North,4,0.0,1.0,83,0.00,,,0.42,,2013-06-18 01:01:00,
2013-06-17 20:11:00,83.0,77.0,29.85,North,4,0.0,1.0,83,0.00,,,0.42,,2013-06-18 01:11:00,
2013-06-17 20:23:00,81.0,77.0,29.85,North,4,0.0,1.0,88,0.00,,,0.42,,2013-06-18 01:23:00,
2013-06-17 20:34:00,80.0,77.0,29.84,NNE,31,0.0,1.0,90,0.00,,,0.42,,2013-06-18 01:34:00,
2013-06-17 20:44:00,80.0,77.0,29.84,NNE,31,0.0,1.0,90,0.00,,,0.42,,2013-06-18 01:44:00,
2013-06-17 20:53:00,79.0,76.0,29.84,NNE,31,0.0,0.0,92,0.00,,,0.42,,2013-06-18 01:53:00,
2013-06-17 21:02:00,78.0,76.0,29.85,NNE,31,0.0,0.0,93,0.00,,,0.42,,2013-06-18 02:02:00,
2013-06-17 21:11:00,78.0,76.0,29.85,NNE,31,0.0,0.0,93,0.00,,,0.42,,2013-06-18 02:11:00,
2013-06-17 21:22:00,77.0,75.0,29.85,NNE,31,0.0,0.0,94,0.00,,,0.42,,2013-06-18 02:22:00,
2013-06-17 21:34:00,77.0,75.0,29.85,NNE,31,0.0,0.0,95,0.00,,,0.42,,2013-06-18 02:34:00,
2013-06-17 21:43:00,77.0,75.0,29.85,NNE,31,0.0,0.0,95,0.00,,,0.42,,2013-06-18 02:43:00,
2013-06-17 21:53:00,76.0,75.0,29.85,NNE,31,0.0,1.0,96,0.00,,,0.42,,2013-06-18 02:53:00,
2013-06-17 22:02:00,76.0,75.0,29.85,NNE,31,0.0,1.0,96,0.00,,,0.42,,2013-06-18 03:02:00,
2013-06-17 22:12:00,76.0,75.0,29.85,NNE,31,0.0,1.0,96,0.00,,,0.42,,2013-06-18 03:12:00,
2013-06-17 22:23:00,76.0,75.0,29.85,NNE,31,0.0,0.0,96,0.00,,,0.42,,2013-06-18 03:23:00,
2013-06-17 22:34:00,76.0,75.0,29.86,NNE,31,0.0,1.0,97,0.00,,,0.42,,2013-06-18 03:34:00,
2013-06-17 22:43:00,76.0,75.0,29.86,NNE,31,0.0,1.0,97,0.00,,,0.42,,2013-06-18 03:43:00,
2013-06-17 22:53:00,76.0,75.0,29.86,NNE,31,0.0,1.0,97,0.00,,,0.42,,2013-06-18 03:53:00,
2013-06-17 23:01:00,76.0,75.0,29.86,NNE,31,0.0,0.0,97,0.00,,,0.42,,2013-06-18 04:01:00,
2013-06-17 23:12:00,76.0,75.0,29.86,NNE,31,0.0,0.0,97,0.00,,,0.42,,2013-06-18 04:12:00,
2013-06-17 23:22:00,76.0,75.0,29.86,NNE,31,0.0,0.0,97,0.00,,,0.42,,2013-06-18 04:22:00,
2013-06-17 23:34:00,76.0,75.0,29.86,NNE,31,0.0,0.0,97,0.00,,,0.42,,2013-06-18 04:34:00,
2013-06-17 23:43:00,76.0,75.0,29.86,NNE,31,0.0,0.0,97,0.00,,,0.42,,2013-06-18 04:43:00,
2013-06-17 23:54:00,76.0,75.0,29.87,NNE,31,0.0,0.0,97,0.00,,,0.42,,2013-06-18 04:54:00,